Time;durP1;ratioP1;P1;durP2;ratioP2;P2;SDS_P1;SDS_P2;PMS_P1;PMS_P2;Temp;Humidity;BMP_temperature;BMP_pressure;BME280_temperature;BME280_humidity;BME280_pressure;Samples;Min_cycle;Max_cycle;Signal;HPM_P1;HPM_P2
2023/08/05 00:03:03;;;;;;;8.45;6.70;;;15.30;99.90;;;;;;9955239;29;20211;-75
2023/08/05 00:08:24;;;;;;;10.55;7.68;;;15.30;1.00;;;;;;9967655;29;20231;-73
2023/08/05 00:13:45;;;;;;;12.68;7.53;;;15.30;99.90;;;;;;9987854;29;20211;-77
2023/08/05 00:19:06;;;;;;;9.05;7.22;;;15.30;99.90;;;;;;10005294;29;20457;-75
2023/08/05 00:24:28;;;;;;;8.73;6.45;;;15.10;99.90;;;;;;10010595;29;20201;-79
2023/08/05 00:29:49;;;;;;;9.23;6.07;;;15.10;99.90;;;;;;9993515;29;20244;-83
2023/08/05 00:35:10;;;;;;;8.23;5.43;;;15.00;99.90;;;;;;9942137;29;20247;-76
2023/08/05 00:40:31;;;;;;;9.63;6.13;;;15.00;99.90;;;;;;9956272;29;20211;-76
2023/08/05 00:45:54;;;;;;;9.63;6.18;;;15.00;99.90;;;;;;9967646;29;20233;-74
2023/08/05 00:51:17;;;;;;;9.80;6.45;;;14.90;1.00;;;;;;9966104;29;20234;-75
2023/08/05 00:56:39;;;;;;;7.32;5.80;;;14.80;99.90;;;;;;9964615;29;20534;-73
2023/08/05 01:02:01;;;;;;;6.93;5.15;;;14.80;99.90;;;;;;9966852;29;20425;-74
2023/08/05 01:07:23;;;;;;;6.25;4.80;;;14.80;97.90;;;;;;9965745;29;20205;-81
2023/08/05 01:12:45;;;;;;;8.43;4.93;;;14.80;99.90;;;;;;9976955;29;20216;-73
2023/08/05 01:18:09;;;;;;;7.63;5.55;;;14.70;99.90;;;;;;9982959;29;20203;-83
2023/08/05 01:23:37;;;;;;;8.68;5.28;;;14.70;99.90;;;;;;10003162;29;20203;-77
2023/08/05 01:28:58;;;;;;;8.15;5.60;;;14.70;99.90;;;;;;9993101;29;20256;-76
2023/08/05 01:34:19;;;;;;;7.28;5.20;;;14.70;99.90;;;;;;9965216;29;20234;-75
2023/08/05 01:39:40;;;;;;;11.48;6.95;;;14.70;99.90;;;;;;9965713;29;20204;-76
2023/08/05 01:45:02;;;;;;;10.70;7.13;;;14.70;1.00;;;;;;9949731;29;20281;-76
2023/08/05 01:50:23;;;;;;;17.15;8.15;;;14.70;1.00;;;;;;9965434;29;20233;-77
2023/08/05 01:55:44;;;;;;;14.30;8.32;;;14.70;1.00;;;;;;9964294;29;20219;-77
2023/08/05 02:01:05;;;;;;;12.85;8.32;;;14.70;1.00;;;;;;9925652;29;20218;-74
2023/08/05 02:06:26;;;;;;;11.48;7.38;;;14.60;1.00;;;;;;9927969;29;20207;-73
2023/08/05 02:11:47;;;;;;;10.73;7.25;;;14.60;1.00;;;;;;9926983;29;20231;-78
2023/08/05 02:17:08;;;;;;;11.98;7.78;;;14.60;1.00;;;;;;9969323;29;20250;-81
2023/08/05 02:22:30;;;;;;;9.27;7.45;;;14.60;1.00;;;;;;10001759;29;20198;-76
2023/08/05 02:27:51;;;;;;;14.30;9.23;;;14.60;1.00;;;;;;10001544;29;20504;-74
2023/08/05 02:33:12;;;;;;;14.02;9.15;;;14.50;1.00;;;;;;9952932;29;20211;-76
2023/08/05 02:38:33;;;;;;;13.02;8.88;;;14.50;1.00;;;;;;9964365;29;20464;-76
2023/08/05 02:43:54;;;;;;;16.42;8.57;;;14.40;1.00;;;;;;9964411;29;20262;-76
2023/08/05 02:49:16;;;;;;;10.75;7.75;;;14.40;1.00;;;;;;9949121;29;20245;-74
2023/08/05 02:54:36;;;;;;;10.13;7.35;;;14.40;99.90;;;;;;9963199;29;20316;-78
2023/08/05 02:59:57;;;;;;;6.90;5.55;;;14.30;99.90;;;;;;9963174;29;20638;-76
2023/08/05 03:05:19;;;;;;;7.40;5.63;;;;;;;;;;9962815;29;20211;-72
2023/08/05 03:10:42;;;;;;;10.02;5.70;;;;;;;;;;9969366;29;20493;-77
2023/08/05 03:16:13;;;;;;;9.10;6.00;;;;;;;;;;9970325;29;20200;-76
2023/08/05 03:21:43;;;;;;;10.60;7.40;;;;;;;;;;10002250;29;20209;-76
2023/08/05 03:27:06;;;;;;;9.80;7.68;;;;;;;;;;10006553;29;20504;-76
2023/08/05 03:32:28;;;;;;;12.30;7.72;;;;;;;;;;9975350;29;20310;-76
2023/08/05 03:37:50;;;;;;;8.80;6.82;;;;;;;;;;9968741;29;20494;-76
2023/08/05 03:43:11;;;;;;;7.95;6.22;;;;;;;;;;9969278;29;20296;-76
2023/08/05 03:48:33;;;;;;;6.93;5.72;;;;;;;;;;9967125;29;20240;-75
2023/08/05 03:53:53;;;;;;;6.50;5.32;;;14.30;36.30;;;;;;9968421;29;20380;-75
2023/08/05 03:59:14;;;;;;;7.80;5.28;;;14.40;99.90;;;;;;9954888;29;20217;-76
2023/08/05 04:04:36;;;;;;;5.35;4.82;;;14.40;1.00;;;;;;9942287;29;20213;-76
2023/08/05 04:09:57;;;;;;;8.00;5.38;;;14.70;1.00;;;;;;9943118;29;20229;-73
2023/08/05 04:15:20;;;;;;;8.55;6.07;;;14.60;99.90;;;;;;9942923;29;20557;-75
2023/08/05 04:20:41;;;;;;;7.20;6.30;;;14.50;99.90;;;;;;10012606;29;20207;-77
2023/08/05 04:26:04;;;;;;;8.65;6.68;;;14.50;99.90;;;;;;10004986;29;20286;-76
2023/08/05 04:31:26;;;;;;;8.38;6.75;;;14.80;99.90;;;;;;9980332;29;20407;-76
2023/08/05 04:36:49;;;;;;;9.50;7.53;;;14.50;1.00;;;;;;9966880;29;20548;-76
2023/08/05 04:42:11;;;;;;;10.73;7.85;;;14.80;1.00;;;;;;9967365;29;20283;-77
2023/08/05 04:47:32;;;;;;;9.40;6.60;;;14.90;1.00;;;;;;9966109;29;20245;-76
2023/08/05 04:52:54;;;;;;;8.85;6.57;;;15.00;1.00;;;;;;9967332;29;20249;-76
2023/08/05 04:58:15;;;;;;;9.07;5.90;;;15.20;1.00;;;;;;9966836;29;20198;-76
2023/08/05 05:03:36;;;;;;;8.63;5.22;;;15.30;1.00;;;;;;9965612;29;20217;-76
2023/08/05 05:08:58;;;;;;;6.28;4.93;;;15.40;1.00;;;;;;9966844;29;20236;-76
2023/08/05 05:14:19;;;;;;;9.73;6.55;;;15.60;1.00;;;;;;9966429;29;20193;-77
2023/08/05 05:19:40;;;;;;;8.05;6.22;;;15.80;1.00;;;;;;9998818;29;20236;-76
2023/08/05 05:25:01;;;;;;;8.45;6.50;;;16.00;1.00;;;;;;10003150;29;20197;-76
2023/08/05 05:30:22;;;;;;;9.18;6.10;;;16.20;1.00;;;;;;9985608;29;20244;-76
2023/08/05 05:35:43;;;;;;;6.45;5.55;;;16.40;1.00;;;;;;9936511;29;20434;-76
2023/08/05 05:41:04;;;;;;;7.32;5.45;;;16.50;1.00;;;;;;9959191;29;20219;-76
2023/08/05 05:46:27;;;;;;;7.60;5.05;;;16.80;1.00;;;;;;9962689;29;20220;-76
2023/08/05 05:51:48;;;;;;;4.47;4.07;;;16.90;1.00;;;;;;9965512;29;20226;-76
2023/08/05 05:57:10;;;;;;;4.45;3.78;;;17.00;99.90;;;;;;9951571;29;20272;-76
2023/08/05 06:02:32;;;;;;;7.45;3.90;;;17.20;99.90;;;;;;9964125;29;20331;-76
2023/08/05 06:07:52;;;;;;;5.97;4.20;;;17.20;99.90;;;;;;9964334;29;20225;-80
2023/08/05 06:13:14;;;;;;;4.88;4.13;;;17.30;99.90;;;;;;9976907;29;20304;-78
2023/08/05 06:18:35;;;;;;;7.15;5.47;;;17.40;99.90;;;;;;9992882;29;20278;-79
2023/08/05 06:23:56;;;;;;;7.75;5.53;;;17.40;99.90;;;;;;10001669;29;20215;-75
2023/08/05 06:29:17;;;;;;;7.22;6.07;;;17.60;99.90;;;;;;9994769;29;20243;-76
2023/08/05 06:34:38;;;;;;;6.93;5.22;;;17.70;1.00;;;;;;9959010;29;20244;-76
2023/08/05 06:39:59;;;;;;;7.75;4.75;;;17.90;99.90;;;;;;9963029;29;20204;-76
2023/08/05 06:45:21;;;;;;;5.32;4.25;;;18.00;1.00;;;;;;9968798;29;20204;-76
2023/08/05 06:50:42;;;;;;;4.60;3.72;;;18.20;1.00;;;;;;9971240;29;20257;-78
2023/08/05 06:56:03;;;;;;;3.67;3.22;;;18.40;1.00;;;;;;9970987;29;20483;-77
2023/08/05 07:01:25;;;;;;;3.53;2.97;;;18.60;1.00;;;;;;9970004;29;20208;-76
2023/08/05 07:06:46;;;;;;;3.47;3.17;;;18.80;11.00;;;;;;9970984;29;20268;-76
2023/08/05 07:12:08;;;;;;;6.57;4.03;;;18.90;99.90;;;;;;9970494;29;20232;-76
2023/08/05 07:17:28;;;;;;;5.30;3.95;;;19.10;1.00;;;;;;9998193;29;20428;-76
2023/08/05 07:22:50;;;;;;;6.97;3.95;;;19.30;64.70;;;;;;10007567;29;20196;-84
2023/08/05 07:28:10;;;;;;;3.80;3.40;;;19.40;19.70;;;;;;10002664;29;20390;-76
2023/08/05 07:33:32;;;;;;;10.63;5.03;;;19.50;1.00;;;;;;9953519;29;20213;-76
2023/08/05 07:38:54;;;;;;;6.78;4.40;;;19.50;99.90;;;;;;9970343;29;20256;-77
2023/08/05 07:44:16;;;;;;;10.85;6.38;;;19.60;99.90;;;;;;9968340;29;20209;-77
2023/08/05 07:49:38;;;;;;;12.88;6.18;;;19.70;99.90;;;;;;9968312;29;20265;-77
2023/08/05 07:54:59;;;;;;;9.95;5.68;;;19.70;1.00;;;;;;9967571;29;20389;-76
2023/08/05 08:00:21;;;;;;;11.48;6.65;;;19.70;1.00;;;;;;9965701;29;20212;-77
2023/08/05 08:05:42;;;;;;;10.07;5.72;;;19.70;1.00;;;;;;9968632;29;20442;-77
2023/08/05 08:11:03;;;;;;;11.15;5.65;;;19.60;1.00;;;;;;9967153;29;20277;-76
2023/08/05 08:16:24;;;;;;;8.68;5.70;;;19.60;1.00;;;;;;9978709;29;20287;-77
2023/08/05 08:21:45;;;;;;;7.97;5.20;;;19.60;1.00;;;;;;10005530;29;20200;-79
2023/08/05 08:27:06;;;;;;;7.90;5.32;;;19.60;99.90;;;;;;10005411;29;20227;-77
2023/08/05 08:32:27;;;;;;;7.63;4.57;;;19.60;1.00;;;;;;9970432;29;20228;-76
2023/08/05 08:37:48;;;;;;;7.18;4.10;;;19.60;1.00;;;;;;9967132;29;20239;-78
2023/08/05 08:43:10;;;;;;;6.55;4.32;;;19.60;99.90;;;;;;9964721;29;20214;-76
2023/08/05 08:48:34;;;;;;;7.10;4.00;;;19.70;99.90;;;;;;9965915;29;20506;-76
2023/08/05 08:53:55;;;;;;;4.95;3.25;;;19.70;1.00;;;;;;9965965;29;20533;-77
2023/08/05 08:59:17;;;;;;;3.50;2.83;;;19.90;1.00;;;;;;9965559;29;20235;-75
2023/08/05 09:04:40;;;;;;;3.90;3.35;;;19.90;33.00;;;;;;9964510;29;20228;-80
2023/08/05 09:10:06;;;;;;;3.15;2.47;;;20.00;7.80;;;;;;9978272;29;20224;-75
2023/08/05 09:15:35;;;;;;;4.53;2.60;;;20.00;1.00;;;;;;9990336;29;20211;-74
2023/08/05 09:21:00;;;;;;;5.53;2.65;;;20.10;1.00;;;;;;10002462;29;20212;-74
2023/08/05 09:26:29;;;;;;;3.83;2.08;;;20.30;1.00;;;;;;10000899;29;20517;-75
2023/08/05 09:32:00;;;;;;;2.22;1.77;;;20.30;99.90;;;;;;9953614;29;20254;-75
2023/08/05 09:37:21;;;;;;;4.68;1.92;;;20.40;99.90;;;;;;9965753;29;20259;-76
2023/08/05 09:42:47;;;;;;;2.58;1.90;;;20.50;99.90;;;;;;9958543;29;20233;-76
2023/08/05 09:48:10;;;;;;;2.78;1.65;;;20.50;99.90;;;;;;9963107;29;20440;-75
2023/08/05 09:53:35;;;;;;;2.25;1.45;;;20.60;99.90;;;;;;9965290;29;20224;-74
2023/08/05 09:58:56;;;;;;;5.95;1.88;;;20.50;99.90;;;;;;9963913;29;20397;-73
2023/08/05 10:04:18;;;;;;;2.10;1.33;;;20.50;99.90;;;;;;9951184;29;20209;-74
2023/08/05 10:09:40;;;;;;;3.45;2.00;;;20.60;99.90;;;;;;9963953;29;20425;-74
2023/08/05 10:15:04;;;;;;;3.05;1.42;;;20.60;92.50;;;;;;9979012;29;20203;-73
2023/08/05 10:20:26;;;;;;;5.18;2.50;;;20.60;10.90;;;;;;10010119;29;20200;-74
2023/08/05 10:25:48;;;;;;;2.70;1.40;;;20.60;1.00;;;;;;10009945;29;20200;-74
2023/08/05 10:31:36;;;;;;;4.10;1.88;;;20.70;1.00;;;;;;9983205;29;20236;-73
2023/08/05 10:36:57;;;;;;;2.92;1.63;;;21.00;1.00;;;;;;9971741;29;20256;-76
2023/08/05 10:42:31;;;;;;;2.25;1.50;;;21.10;1.00;;;;;;9971138;29;20208;-76
2023/08/05 10:47:53;;;;;;;2.30;1.60;;;21.20;1.00;;;;;;9949446;29;20208;-76
2023/08/05 10:53:14;;;;;;;4.78;2.30;;;21.30;1.00;;;;;;9970750;29;20421;-76
2023/08/05 10:58:37;;;;;;;5.38;1.65;;;21.40;1.00;;;;;;9970112;29;20555;-76
2023/08/05 11:03:58;;;;;;;2.45;1.63;;;21.40;1.00;;;;;;9969973;29;20232;-76
2023/08/05 11:09:19;;;;;;;3.13;1.80;;;21.60;1.00;;;;;;9970974;29;20578;-77
2023/08/05 11:14:41;;;;;;;3.35;1.70;;;21.80;1.00;;;;;;9970490;29;20207;-76
2023/08/05 11:20:02;;;;;;;3.00;1.60;;;21.90;1.00;;;;;;10002461;29;20204;-75
2023/08/05 11:25:23;;;;;;;3.75;1.60;;;22.10;1.00;;;;;;10007952;29;20203;-76
2023/08/05 11:30:44;;;;;;;2.38;1.42;;;22.50;1.00;;;;;;9986680;29;20236;-76
2023/08/05 11:36:05;;;;;;;4.53;1.67;;;22.80;1.00;;;;;;9970032;29;20237;-77
2023/08/05 11:41:27;;;;;;;2.60;1.50;;;22.90;1.00;;;;;;9968728;29;20246;-76
2023/08/05 11:46:48;;;;;;;4.20;1.30;;;22.90;1.00;;;;;;9965236;29;20551;-76
2023/08/05 11:52:18;;;;;;;2.75;1.60;;;22.80;1.00;;;;;;9968992;29;20232;-78
2023/08/05 11:57:39;;;;;;;1.98;1.50;;;22.60;1.00;;;;;;9969054;29;20200;-76
2023/08/05 12:03:04;;;;;;;2.40;1.63;;;22.40;1.00;;;;;;9967471;29;20586;-78
2023/08/05 12:08:44;;;;;;;1.52;1.20;;;22.30;1.00;;;;;;9968797;29;20440;-83
2023/08/05 12:14:05;;;;;;;4.20;1.60;;;22.30;1.00;;;;;;9968369;29;20204;-76
2023/08/05 12:19:26;;;;;;;2.22;1.30;;;22.30;1.00;;;;;;9981937;29;20211;-76
2023/08/05 12:24:47;;;;;;;2.58;1.60;;;22.20;1.00;;;;;;10005921;29;20218;-75
2023/08/05 12:30:09;;;;;;;1.33;1.23;;;22.30;1.00;;;;;;9992447;29;20262;-76
2023/08/05 12:35:31;;;;;;;1.60;1.13;;;22.20;1.00;;;;;;9966100;29;20248;-77
2023/08/05 12:40:52;;;;;;;1.75;1.15;;;22.20;1.00;;;;;;9965921;29;20524;-76
2023/08/05 12:46:13;;;;;;;2.05;1.50;;;22.30;1.00;;;;;;9967366;29;20279;-77
2023/08/05 12:51:34;;;;;;;1.88;1.10;;;22.50;1.00;;;;;;9965838;29;20255;-76
2023/08/05 12:56:56;;;;;;;1.48;1.10;;;22.50;1.00;;;;;;9966826;29;20280;-76
2023/08/05 13:02:21;;;;;;;2.28;1.10;;;22.40;1.00;;;;;;9965651;29;20558;-77
2023/08/05 13:07:44;;;;;;;2.92;1.80;;;22.30;1.00;;;;;;9929265;29;20213;-77
2023/08/05 13:13:05;;;;;;;2.38;1.40;;;22.10;1.00;;;;;;9928933;29;20446;-76
2023/08/05 13:18:26;;;;;;;2.70;1.63;;;21.90;1.00;;;;;;9958116;29;20249;-75
2023/08/05 13:23:47;;;;;;;8.25;2.05;;;21.90;1.00;;;;;;10003870;29;20479;-77
2023/08/05 13:29:08;;;;;;;3.97;2.15;;;22.00;1.00;;;;;;9993029;29;20223;-77
2023/08/05 13:34:29;;;;;;;5.28;1.77;;;22.00;1.00;;;;;;9965753;29;20268;-76
2023/08/05 13:39:50;;;;;;;3.60;1.90;;;21.90;1.00;;;;;;9961748;29;20224;-84
2023/08/05 13:45:11;;;;;;;2.30;1.50;;;22.00;1.00;;;;;;9965597;29;20204;-75
2023/08/05 13:50:33;;;;;;;3.95;1.92;;;22.10;1.00;;;;;;9964670;29;20228;-81
2023/08/05 13:55:55;;;;;;;4.07;2.47;;;22.20;1.00;;;;;;9963358;29;20235;-78
2023/08/05 14:01:16;;;;;;;2.60;1.70;;;22.20;1.00;;;;;;9964941;29;20211;-76
2023/08/05 14:06:38;;;;;;;2.38;1.70;;;22.20;1.00;;;;;;9965608;29;20204;-75
2023/08/05 14:11:59;;;;;;;2.78;1.45;;;22.10;1.00;;;;;;9975812;29;20541;-76
2023/08/05 14:17:20;;;;;;;1.77;1.23;;;21.80;1.00;;;;;;10001897;29;20226;-76
2023/08/05 14:22:41;;;;;;;2.05;1.23;;;21.60;1.00;;;;;;10002548;29;20207;-77
2023/08/05 14:28:04;;;;;;;1.80;1.20;;;21.50;1.00;;;;;;9996981;29;20234;-76
2023/08/05 14:33:25;;;;;;;2.45;1.70;;;21.50;1.00;;;;;;9964422;29;20228;-76
2023/08/05 14:38:49;;;;;;;2.00;1.60;;;21.40;1.00;;;;;;9964164;29;20263;-77
2023/08/05 14:44:10;;;;;;;2.83;1.88;;;21.20;1.00;;;;;;9960766;29;20205;-77
2023/08/05 14:49:31;;;;;;;2.45;1.52;;;21.10;1.00;;;;;;9964297;29;20283;-76
2023/08/05 14:54:53;;;;;;;3.80;2.08;;;21.00;1.00;;;;;;9950175;29;20205;-78
2023/08/05 15:00:14;;;;;;;2.80;1.83;;;21.00;1.00;;;;;;9963032;29;20232;-73
2023/08/05 15:05:35;;;;;;;4.85;2.33;;;20.90;1.00;;;;;;9970252;29;20254;-76
2023/08/05 15:10:58;;;;;;;3.13;2.08;;;20.80;1.00;;;;;;9969667;29;20288;-78
2023/08/05 15:16:19;;;;;;;3.00;2.15;;;20.80;1.00;;;;;;9990871;29;20203;-78
2023/08/05 15:21:41;;;;;;;3.95;2.80;;;20.70;33.00;;;;;;10007537;29;20284;-76
2023/08/05 15:27:03;;;;;;;4.55;2.92;;;20.70;1.00;;;;;;10001266;29;20540;-76
2023/08/05 15:32:25;;;;;;;4.68;2.95;;;20.70;1.00;;;;;;9977376;29;20234;-76
2023/08/05 15:37:47;;;;;;;3.60;2.67;;;20.70;29.20;;;;;;9969517;29;20316;-76
2023/08/05 15:43:10;;;;;;;3.00;2.33;;;20.60;89.20;;;;;;9965033;29;20217;-76
2023/08/05 15:48:31;;;;;;;4.82;2.83;;;20.60;99.90;;;;;;9968280;29;20550;-76
2023/08/05 15:53:53;;;;;;;3.13;2.10;;;20.60;54.70;;;;;;9969326;29;20224;-77
2023/08/05 15:59:14;;;;;;;2.65;2.35;;;20.50;7.30;;;;;;9939674;29;20221;-75
2023/08/05 16:04:36;;;;;;;3.15;2.65;;;20.50;1.00;;;;;;9930456;29;20204;-77
2023/08/05 16:09:58;;;;;;;2.38;1.85;;;20.40;1.00;;;;;;9943954;29;20288;-76
2023/08/05 16:15:20;;;;;;;5.18;2.65;;;20.40;99.90;;;;;;10005538;29;20494;-77
2023/08/05 16:20:41;;;;;;;3.67;2.80;;;20.30;21.30;;;;;;10002669;29;20387;-76
2023/08/05 16:26:16;;;;;;;2.78;2.15;;;20.20;98.10;;;;;;9994984;29;20204;-77
2023/08/05 16:31:37;;;;;;;4.25;2.30;;;20.20;70.50;;;;;;9967821;29;20307;-76
2023/08/05 16:36:58;;;;;;;5.22;2.45;;;20.10;32.40;;;;;;9967662;29;20247;-77
2023/08/05 16:42:19;;;;;;;3.75;1.80;;;20.00;1.00;;;;;;9965216;29;20255;-76
2023/08/05 16:47:40;;;;;;;3.70;2.05;;;19.90;37.90;;;;;;9963618;29;20454;-76
2023/08/05 16:53:02;;;;;;;3.10;1.65;;;19.80;99.90;;;;;;9952608;29;20239;-76
2023/08/05 16:58:23;;;;;;;3.72;2.22;;;19.80;99.90;;;;;;9966517;29;20275;-77
2023/08/05 17:03:44;;;;;;;2.17;1.60;;;19.70;99.90;;;;;;9965683;29;20370;-77
2023/08/05 17:09:05;;;;;;;2.25;1.55;;;19.60;1.00;;;;;;9966251;29;20230;-79
2023/08/05 17:14:26;;;;;;;5.25;2.35;;;19.50;1.00;;;;;;9966767;29;20224;-76
2023/08/05 17:19:47;;;;;;;2.47;1.90;;;19.40;1.00;;;;;;9977544;29;20208;-76
2023/08/05 17:25:09;;;;;;;3.05;2.22;;;19.40;50.20;;;;;;10003585;29;20204;-77
2023/08/05 17:30:32;;;;;;;6.75;3.13;;;19.30;90.00;;;;;;9988164;29;20254;-77
2023/08/05 17:35:53;;;;;;;4.03;2.55;;;19.20;1.00;;;;;;9977189;29;20243;-77
2023/08/05 17:41:14;;;;;;;5.25;3.00;;;19.10;99.90;;;;;;9940349;29;20216;-76
2023/08/05 17:46:35;;;;;;;6.70;2.65;;;18.90;1.00;;;;;;9956566;29;20284;-76
2023/08/05 17:51:57;;;;;;;3.58;2.95;;;;;;;;;;9964465;29;20262;-75
2023/08/05 17:57:18;;;;;;;7.38;4.35;;;18.80;1.00;;;;;;9951776;29;20208;-76
2023/08/05 18:02:39;;;;;;;5.60;3.85;;;18.70;99.90;;;;;;9965220;29;20200;-76
2023/08/05 18:08:01;;;;;;;5.15;3.45;;;18.70;1.00;;;;;;9971765;29;20207;-76
2023/08/05 18:13:22;;;;;;;7.43;4.60;;;18.50;99.90;;;;;;10003148;29;20455;-75
2023/08/05 18:18:43;;;;;;;9.52;5.85;;;18.40;99.90;;;;;;9989297;29;20196;-76
2023/08/05 18:24:04;;;;;;;13.00;8.63;;;18.40;1.00;;;;;;9982732;29;20393;-76
2023/08/05 18:29:25;;;;;;;18.77;12.63;;;18.30;99.90;;;;;;9995206;29;20269;-76
2023/08/05 18:34:46;;;;;;;22.08;13.88;;;18.20;1.00;;;;;;9964848;29;20248;-76
2023/08/05 18:40:08;;;;;;;16.50;12.05;;;18.10;99.90;;;;;;9947069;29;20218;-75
2023/08/05 18:45:35;;;;;;;13.35;8.98;;;18.00;1.00;;;;;;9970596;29;20208;-75
2023/08/05 18:50:56;;;;;;;10.32;7.40;;;17.80;99.90;;;;;;9969318;29;20242;-76
2023/08/05 18:56:18;;;;;;;8.63;5.68;;;17.70;90.50;;;;;;9970914;29;20201;-78
2023/08/05 19:01:39;;;;;;;9.30;5.60;;;17.70;99.90;;;;;;9969351;29;20222;-76
2023/08/05 19:07:01;;;;;;;12.48;8.55;;;17.60;1.00;;;;;;9970336;29;20411;-76
2023/08/05 19:12:21;;;;;;;13.23;8.52;;;17.60;1.00;;;;;;9993581;29;20230;-75
2023/08/05 19:17:42;;;;;;;18.80;11.32;;;17.50;1.00;;;;;;10008207;29;20199;-77
2023/08/05 19:23:04;;;;;;;15.07;9.95;;;17.40;1.00;;;;;;10008016;29;20502;-76
2023/08/05 19:28:25;;;;;;;14.40;9.18;;;17.30;1.00;;;;;;10000460;29;20454;-76
2023/08/05 19:33:48;;;;;;;20.23;11.07;;;17.30;1.00;;;;;;9973250;29;20279;-78
2023/08/05 19:39:09;;;;;;;15.07;9.82;;;17.30;1.00;;;;;;9963827;29;20598;-75
2023/08/05 19:44:30;;;;;;;8.65;6.43;;;17.20;1.00;;;;;;9970001;29;20283;-76
2023/08/05 19:49:51;;;;;;;7.38;5.38;;;17.10;1.00;;;;;;9969056;29;20495;-76
2023/08/05 19:55:12;;;;;;;9.38;6.28;;;17.00;1.00;;;;;;9968257;29;20508;-76
2023/08/05 20:00:33;;;;;;;7.13;5.75;;;17.00;1.00;;;;;;9969556;29;20583;-76
2023/08/05 20:05:55;;;;;;;7.32;5.75;;;17.00;41.60;;;;;;9967273;29;20211;-77
2023/08/05 20:11:16;;;;;;;10.13;5.13;;;17.00;79.00;;;;;;10006450;29;20221;-77
2023/08/05 20:16:37;;;;;;;6.25;4.70;;;17.10;26.80;;;;;;10005519;29;20247;-76
2023/08/05 20:21:58;;;;;;;7.90;4.25;;;17.10;22.80;;;;;;10000605;29;20385;-76
2023/08/05 20:27:19;;;;;;;6.95;4.90;;;17.00;34.20;;;;;;10006060;29;20203;-78
2023/08/05 20:32:40;;;;;;;9.30;5.63;;;17.00;47.30;;;;;;9973754;29;20255;-76
2023/08/05 20:38:01;;;;;;;10.20;6.43;;;17.00;64.00;;;;;;9966773;29;20248;-76
2023/08/05 20:43:22;;;;;;;10.30;7.18;;;16.90;56.20;;;;;;9967869;29;20211;-76
2023/08/05 20:48:48;;;;;;;12.10;7.45;;;16.80;61.60;;;;;;9966643;29;20423;-77
2023/08/05 20:54:09;;;;;;;9.77;5.50;;;16.80;58.10;;;;;;9966216;29;20271;-76
2023/08/05 20:59:30;;;;;;;10.18;5.63;;;16.80;99.90;;;;;;9967555;29;20198;-76
2023/08/05 21:04:51;;;;;;;7.32;4.97;;;16.90;99.90;;;;;;9969976;29;20383;-76
2023/08/05 21:10:12;;;;;;;6.60;5.30;;;16.90;99.80;;;;;;9929217;29;20215;-76
2023/08/05 21:15:34;;;;;;;8.93;4.90;;;16.90;99.90;;;;;;9929569;29;20210;-76
2023/08/05 21:20:56;;;;;;;7.32;5.18;;;16.80;99.90;;;;;;9995947;29;20631;-76
2023/08/05 21:26:17;;;;;;;8.57;4.72;;;16.80;99.90;;;;;;10003189;29;20450;-76
2023/08/05 21:31:38;;;;;;;9.52;5.10;;;16.70;99.90;;;;;;9978346;29;20314;-76
2023/08/05 21:36:59;;;;;;;8.23;5.50;;;16.70;99.90;;;;;;9963598;29;20258;-76
2023/08/05 21:42:20;;;;;;;8.15;5.57;;;16.70;99.90;;;;;;9966083;29;20299;-76
2023/08/05 21:47:42;;;;;;;6.70;4.13;;;16.60;99.90;;;;;;9965802;29;20496;-76
2023/08/05 21:53:03;;;;;;;6.88;4.65;;;16.60;99.90;;;;;;9964317;29;20250;-76
2023/08/05 21:58:24;;;;;;;7.28;4.03;;;16.60;99.90;;;;;;9964700;29;20216;-76
2023/08/05 22:03:45;;;;;;;6.95;3.53;;;16.60;99.90;;;;;;9951727;29;20286;-77
2023/08/05 22:09:06;;;;;;;6.97;5.10;;;16.50;99.90;;;;;;9940457;29;20291;-76
2023/08/05 22:14:28;;;;;;;7.55;4.20;;;16.50;99.90;;;;;;9932385;29;20239;-76
2023/08/05 22:19:49;;;;;;;8.05;3.47;;;16.50;99.90;;;;;;9985079;29;20241;-75
2023/08/05 22:25:10;;;;;;;5.40;2.95;;;16.50;99.90;;;;;;10010241;29;20193;-76
2023/08/05 22:30:31;;;;;;;7.32;2.97;;;16.50;99.90;;;;;;9993142;29;20283;-76
2023/08/05 22:35:52;;;;;;;3.50;2.90;;;16.40;99.90;;;;;;9970006;29;20541;-76
2023/08/05 22:41:14;;;;;;;4.93;2.78;;;16.40;99.90;;;;;;9972365;29;20255;-76
2023/08/05 22:46:35;;;;;;;3.67;2.25;;;16.40;99.90;;;;;;9970921;29;20210;-76
2023/08/05 22:51:57;;;;;;;3.13;2.40;;;16.30;99.90;;;;;;9968908;29;20242;-76
2023/08/05 22:57:18;;;;;;;4.05;2.28;;;16.20;99.90;;;;;;9971852;29;20207;-76
2023/08/05 23:02:42;;;;;;;2.40;2.08;;;16.20;99.90;;;;;;9971407;29;20214;-77
2023/08/05 23:08:03;;;;;;;4.28;2.20;;;16.20;39.30;;;;;;9984457;29;20462;-76
2023/08/05 23:13:26;;;;;;;3.13;2.08;;;16.20;31.00;;;;;;10008548;29;20235;-76
2023/08/05 23:18:48;;;;;;;2.85;2.00;;;16.30;58.30;;;;;;10006882;29;20209;-76
2023/08/05 23:24:10;;;;;;;2.00;1.73;;;16.20;59.90;;;;;;10001601;29;20230;-76
2023/08/05 23:29:31;;;;;;;3.47;2.22;;;16.20;94.20;;;;;;9999729;29;20278;-76
2023/08/05 23:34:52;;;;;;;3.03;2.17;;;16.20;93.40;;;;;;9969796;29;20326;-77
2023/08/05 23:40:13;;;;;;;4.90;2.15;;;16.20;99.90;;;;;;9969646;29;20208;-76
2023/08/05 23:45:34;;;;;;;4.22;2.30;;;16.20;99.90;;;;;;9969925;29;20210;-76
2023/08/05 23:50:55;;;;;;;4.65;2.50;;;16.20;99.90;;;;;;9967591;29;20412;-76
2023/08/05 23:56:16;;;;;;;4.30;2.03;;;16.20;99.90;;;;;;9967589;29;20286;-77
